sensor_id;sensor_type;location;lat;lon;timestamp;P1;durP1;ratioP1;P2;durP2;ratioP2
6527;SDS011;64597;42.664;23.256;2024-03-02T00:01:57;21.00;;;8.38;;
6527;SDS011;64597;42.664;23.256;2024-03-02T00:04:23;19.90;;;9.10;;
6527;SDS011;64597;42.664;23.256;2024-03-02T00:06:51;18.98;;;9.02;;
6527;SDS011;64597;42.664;23.256;2024-03-02T00:09:19;19.90;;;9.55;;
6527;SDS011;64597;42.664;23.256;2024-03-02T00:11:48;20.52;;;9.98;;
6527;SDS011;64597;42.664;23.256;2024-03-02T00:14:14;17.58;;;9.15;;
6527;SDS011;64597;42.664;23.256;2024-03-02T00:16:40;17.35;;;8.60;;
6527;SDS011;64597;42.664;23.256;2024-03-02T00:19:06;19.92;;;8.55;;
6527;SDS011;64597;42.664;23.256;2024-03-02T00:21:32;18.40;;;10.00;;
6527;SDS011;64597;42.664;23.256;2024-03-02T00:23:58;15.75;;;7.82;;
6527;SDS011;64597;42.664;23.256;2024-03-02T00:26:25;16.95;;;7.45;;
6527;SDS011;64597;42.664;23.256;2024-03-02T00:28:50;18.00;;;9.00;;
6527;SDS011;64597;42.664;23.256;2024-03-02T00:31:26;16.60;;;8.02;;
6527;SDS011;64597;42.664;23.256;2024-03-02T00:33:51;14.10;;;7.95;;
6527;SDS011;64597;42.664;23.256;2024-03-02T00:36:24;19.77;;;9.60;;
6527;SDS011;64597;42.664;23.256;2024-03-02T00:38:52;14.48;;;7.72;;
6527;SDS011;64597;42.664;23.256;2024-03-02T00:41:31;19.73;;;8.35;;
6527;SDS011;64597;42.664;23.256;2024-03-02T00:44:06;18.92;;;8.77;;
6527;SDS011;64597;42.664;23.256;2024-03-02T00:46:37;18.40;;;8.77;;
6527;SDS011;64597;42.664;23.256;2024-03-02T00:49:03;18.40;;;9.02;;
6527;SDS011;64597;42.664;23.256;2024-03-02T00:51:31;15.48;;;9.65;;
6527;SDS011;64597;42.664;23.256;2024-03-02T00:53:58;16.17;;;8.52;;
6527;SDS011;64597;42.664;23.256;2024-03-02T00:56:25;19.10;;;8.95;;
6527;SDS011;64597;42.664;23.256;2024-03-02T00:58:51;18.65;;;9.07;;
6527;SDS011;64597;42.664;23.256;2024-03-02T01:01:17;17.60;;;9.35;;
6527;SDS011;64597;42.664;23.256;2024-03-02T01:03:44;20.30;;;9.73;;
6527;SDS011;64597;42.664;23.256;2024-03-02T01:06:10;20.02;;;8.25;;
6527;SDS011;64597;42.664;23.256;2024-03-02T01:08:37;22.25;;;11.30;;
6527;SDS011;64597;42.664;23.256;2024-03-02T01:11:03;20.67;;;9.32;;
6527;SDS011;64597;42.664;23.256;2024-03-02T01:13:29;17.92;;;10.00;;
6527;SDS011;64597;42.664;23.256;2024-03-02T01:15:55;20.60;;;9.73;;
6527;SDS011;64597;42.664;23.256;2024-03-02T01:18:21;20.65;;;9.30;;
6527;SDS011;64597;42.664;23.256;2024-03-02T01:20:47;21.15;;;9.38;;
6527;SDS011;64597;42.664;23.256;2024-03-02T01:23:16;21.23;;;9.70;;
6527;SDS011;64597;42.664;23.256;2024-03-02T01:25:42;18.38;;;10.57;;
6527;SDS011;64597;42.664;23.256;2024-03-02T01:28:07;19.77;;;8.80;;
6527;SDS011;64597;42.664;23.256;2024-03-02T01:30:35;20.35;;;10.57;;
6527;SDS011;64597;42.664;23.256;2024-03-02T01:33:01;22.48;;;10.55;;
6527;SDS011;64597;42.664;23.256;2024-03-02T01:35:27;21.52;;;10.70;;
6527;SDS011;64597;42.664;23.256;2024-03-02T01:37:53;18.65;;;9.70;;
6527;SDS011;64597;42.664;23.256;2024-03-02T01:40:19;20.52;;;9.48;;
6527;SDS011;64597;42.664;23.256;2024-03-02T01:42:45;23.83;;;10.27;;
6527;SDS011;64597;42.664;23.256;2024-03-02T01:45:10;20.80;;;10.38;;
6527;SDS011;64597;42.664;23.256;2024-03-02T01:47:36;17.92;;;9.68;;
6527;SDS011;64597;42.664;23.256;2024-03-02T01:50:01;17.33;;;9.00;;
6527;SDS011;64597;42.664;23.256;2024-03-02T01:52:27;19.45;;;9.18;;
6527;SDS011;64597;42.664;23.256;2024-03-02T01:54:53;20.35;;;9.73;;
6527;SDS011;64597;42.664;23.256;2024-03-02T01:57:18;19.60;;;9.05;;
6527;SDS011;64597;42.664;23.256;2024-03-02T01:59:44;23.08;;;10.25;;
6527;SDS011;64597;42.664;23.256;2024-03-02T02:02:12;20.02;;;10.05;;
6527;SDS011;64597;42.664;23.256;2024-03-02T02:04:38;17.80;;;9.57;;
6527;SDS011;64597;42.664;23.256;2024-03-02T02:07:04;23.20;;;10.27;;
6527;SDS011;64597;42.664;23.256;2024-03-02T02:09:29;21.20;;;10.68;;
6527;SDS011;64597;42.664;23.256;2024-03-02T02:11:55;18.73;;;9.90;;
6527;SDS011;64597;42.664;23.256;2024-03-02T02:14:20;20.23;;;10.00;;
6527;SDS011;64597;42.664;23.256;2024-03-02T02:16:45;19.67;;;9.55;;
6527;SDS011;64597;42.664;23.256;2024-03-02T02:19:11;23.38;;;9.70;;
6527;SDS011;64597;42.664;23.256;2024-03-02T02:21:36;18.73;;;9.57;;
6527;SDS011;64597;42.664;23.256;2024-03-02T02:24:02;19.75;;;9.70;;
6527;SDS011;64597;42.664;23.256;2024-03-02T02:26:29;26.02;;;11.82;;
6527;SDS011;64597;42.664;23.256;2024-03-02T02:28:54;20.90;;;9.60;;
6527;SDS011;64597;42.664;23.256;2024-03-02T02:31:20;21.33;;;9.15;;
6527;SDS011;64597;42.664;23.256;2024-03-02T02:33:45;20.45;;;9.57;;
6527;SDS011;64597;42.664;23.256;2024-03-02T02:36:11;21.23;;;9.95;;
6527;SDS011;64597;42.664;23.256;2024-03-02T02:38:38;20.27;;;9.80;;
6527;SDS011;64597;42.664;23.256;2024-03-02T02:41:07;20.35;;;10.55;;
6527;SDS011;64597;42.664;23.256;2024-03-02T02:43:32;23.27;;;10.45;;
6527;SDS011;64597;42.664;23.256;2024-03-02T02:45:58;18.27;;;9.70;;
6527;SDS011;64597;42.664;23.256;2024-03-02T02:48:23;18.02;;;10.18;;
6527;SDS011;64597;42.664;23.256;2024-03-02T02:50:48;19.17;;;10.65;;
6527;SDS011;64597;42.664;23.256;2024-03-02T02:53:14;19.55;;;10.25;;
6527;SDS011;64597;42.664;23.256;2024-03-02T02:55:39;20.55;;;8.75;;
6527;SDS011;64597;42.664;23.256;2024-03-02T02:58:08;19.65;;;9.25;;
6527;SDS011;64597;42.664;23.256;2024-03-02T03:00:35;21.05;;;9.73;;
6527;SDS011;64597;42.664;23.256;2024-03-02T03:03:01;22.10;;;9.95;;
6527;SDS011;64597;42.664;23.256;2024-03-02T03:05:27;23.92;;;11.20;;
6527;SDS011;64597;42.664;23.256;2024-03-02T03:07:53;23.88;;;10.70;;
6527;SDS011;64597;42.664;23.256;2024-03-02T03:10:18;24.42;;;11.45;;
6527;SDS011;64597;42.664;23.256;2024-03-02T03:12:47;24.75;;;11.80;;
6527;SDS011;64597;42.664;23.256;2024-03-02T03:15:12;26.95;;;12.50;;
6527;SDS011;64597;42.664;23.256;2024-03-02T03:17:38;27.48;;;13.57;;
6527;SDS011;64597;42.664;23.256;2024-03-02T03:20:03;23.40;;;11.20;;
6527;SDS011;64597;42.664;23.256;2024-03-02T03:22:30;21.80;;;9.90;;
6527;SDS011;64597;42.664;23.256;2024-03-02T03:25:00;24.00;;;11.57;;
6527;SDS011;64597;42.664;23.256;2024-03-02T03:27:25;26.05;;;12.98;;
6527;SDS011;64597;42.664;23.256;2024-03-02T03:29:51;23.95;;;11.18;;
6527;SDS011;64597;42.664;23.256;2024-03-02T03:32:17;24.00;;;11.57;;
6527;SDS011;64597;42.664;23.256;2024-03-02T03:34:42;26.83;;;11.95;;
6527;SDS011;64597;42.664;23.256;2024-03-02T03:37:08;30.10;;;13.40;;
6527;SDS011;64597;42.664;23.256;2024-03-02T03:39:34;27.30;;;11.98;;
6527;SDS011;64597;42.664;23.256;2024-03-02T03:44:28;21.42;;;11.52;;
6527;SDS011;64597;42.664;23.256;2024-03-02T03:46:54;23.35;;;10.95;;
6527;SDS011;64597;42.664;23.256;2024-03-02T03:49:19;26.17;;;13.07;;
6527;SDS011;64597;42.664;23.256;2024-03-02T03:51:45;25.20;;;11.85;;
6527;SDS011;64597;42.664;23.256;2024-03-02T03:54:10;25.98;;;12.32;;
6527;SDS011;64597;42.664;23.256;2024-03-02T03:56:36;29.63;;;13.68;;
6527;SDS011;64597;42.664;23.256;2024-03-02T03:59:02;24.67;;;12.27;;
6527;SDS011;64597;42.664;23.256;2024-03-02T04:01:27;29.95;;;13.23;;
6527;SDS011;64597;42.664;23.256;2024-03-02T04:03:53;25.48;;;12.98;;
6527;SDS011;64597;42.664;23.256;2024-03-02T04:06:18;25.83;;;13.60;;
6527;SDS011;64597;42.664;23.256;2024-03-02T04:08:43;27.23;;;13.10;;
6527;SDS011;64597;42.664;23.256;2024-03-02T04:11:09;26.85;;;11.70;;
6527;SDS011;64597;42.664;23.256;2024-03-02T04:13:34;27.23;;;13.23;;
6527;SDS011;64597;42.664;23.256;2024-03-02T04:16:00;28.50;;;12.07;;
6527;SDS011;64597;42.664;23.256;2024-03-02T04:18:25;25.55;;;13.57;;
6527;SDS011;64597;42.664;23.256;2024-03-02T04:20:51;29.33;;;13.13;;
6527;SDS011;64597;42.664;23.256;2024-03-02T04:23:17;29.27;;;12.30;;
6527;SDS011;64597;42.664;23.256;2024-03-02T04:25:43;28.95;;;12.50;;
6527;SDS011;64597;42.664;23.256;2024-03-02T04:28:08;29.27;;;14.07;;
6527;SDS011;64597;42.664;23.256;2024-03-02T04:30:34;30.42;;;13.55;;
6527;SDS011;64597;42.664;23.256;2024-03-02T04:32:59;25.85;;;12.15;;
6527;SDS011;64597;42.664;23.256;2024-03-02T04:35:26;26.65;;;13.30;;
6527;SDS011;64597;42.664;23.256;2024-03-02T04:37:51;29.40;;;13.98;;
6527;SDS011;64597;42.664;23.256;2024-03-02T04:40:16;29.55;;;15.10;;
6527;SDS011;64597;42.664;23.256;2024-03-02T04:42:42;28.27;;;12.40;;
6527;SDS011;64597;42.664;23.256;2024-03-02T04:45:08;29.08;;;13.60;;
6527;SDS011;64597;42.664;23.256;2024-03-02T04:47:33;32.03;;;13.20;;
6527;SDS011;64597;42.664;23.256;2024-03-02T04:49:59;28.58;;;11.80;;
6527;SDS011;64597;42.664;23.256;2024-03-02T04:52:24;23.15;;;11.82;;
6527;SDS011;64597;42.664;23.256;2024-03-02T04:54:50;26.48;;;12.20;;
6527;SDS011;64597;42.664;23.256;2024-03-02T04:57:53;23.38;;;13.27;;
6527;SDS011;64597;42.664;23.256;2024-03-02T05:00:22;31.02;;;13.05;;
6527;SDS011;64597;42.664;23.256;2024-03-02T05:02:47;23.60;;;12.35;;
6527;SDS011;64597;42.664;23.256;2024-03-02T05:05:12;31.15;;;13.02;;
6527;SDS011;64597;42.664;23.256;2024-03-02T05:07:40;33.35;;;13.30;;
6527;SDS011;64597;42.664;23.256;2024-03-02T05:10:07;27.48;;;12.82;;
6527;SDS011;64597;42.664;23.256;2024-03-02T05:12:33;27.13;;;12.43;;
6527;SDS011;64597;42.664;23.256;2024-03-02T05:15:19;26.20;;;11.90;;
6527;SDS011;64597;42.664;23.256;2024-03-02T05:17:44;29.38;;;12.57;;
6527;SDS011;64597;42.664;23.256;2024-03-02T05:20:10;26.80;;;11.57;;
6527;SDS011;64597;42.664;23.256;2024-03-02T05:22:36;29.13;;;12.15;;
6527;SDS011;64597;42.664;23.256;2024-03-02T05:25:05;24.48;;;11.98;;
6527;SDS011;64597;42.664;23.256;2024-03-02T05:27:31;28.80;;;11.95;;
6527;SDS011;64597;42.664;23.256;2024-03-02T05:29:59;30.58;;;12.38;;
6527;SDS011;64597;42.664;23.256;2024-03-02T05:32:25;29.52;;;14.00;;
6527;SDS011;64597;42.664;23.256;2024-03-02T05:34:50;26.00;;;12.63;;
6527;SDS011;64597;42.664;23.256;2024-03-02T05:37:16;27.45;;;13.23;;
6527;SDS011;64597;42.664;23.256;2024-03-02T05:39:42;29.83;;;12.02;;
6527;SDS011;64597;42.664;23.256;2024-03-02T05:42:10;28.75;;;14.48;;
6527;SDS011;64597;42.664;23.256;2024-03-02T05:44:36;27.40;;;12.73;;
6527;SDS011;64597;42.664;23.256;2024-03-02T05:47:02;28.13;;;12.10;;
6527;SDS011;64597;42.664;23.256;2024-03-02T05:49:28;25.73;;;12.65;;
6527;SDS011;64597;42.664;23.256;2024-03-02T05:51:53;30.75;;;11.95;;
6527;SDS011;64597;42.664;23.256;2024-03-02T05:54:19;26.65;;;11.00;;
6527;SDS011;64597;42.664;23.256;2024-03-02T05:56:44;28.75;;;12.38;;
6527;SDS011;64597;42.664;23.256;2024-03-02T05:59:09;24.75;;;12.10;;
6527;SDS011;64597;42.664;23.256;2024-03-02T06:01:47;26.63;;;13.15;;
6527;SDS011;64597;42.664;23.256;2024-03-02T06:04:13;28.83;;;12.82;;
6527;SDS011;64597;42.664;23.256;2024-03-02T06:06:39;28.92;;;14.57;;
6527;SDS011;64597;42.664;23.256;2024-03-02T06:09:05;29.80;;;14.10;;
6527;SDS011;64597;42.664;23.256;2024-03-02T06:11:38;30.08;;;12.38;;
6527;SDS011;64597;42.664;23.256;2024-03-02T06:14:05;27.80;;;13.35;;
6527;SDS011;64597;42.664;23.256;2024-03-02T06:16:31;28.00;;;13.00;;
6527;SDS011;64597;42.664;23.256;2024-03-02T06:18:57;32.05;;;14.13;;
6527;SDS011;64597;42.664;23.256;2024-03-02T06:21:23;25.67;;;11.80;;
6527;SDS011;64597;42.664;23.256;2024-03-02T06:23:49;27.80;;;13.73;;
6527;SDS011;64597;42.664;23.256;2024-03-02T06:26:15;27.60;;;12.75;;
6527;SDS011;64597;42.664;23.256;2024-03-02T06:28:40;28.60;;;13.27;;
6527;SDS011;64597;42.664;23.256;2024-03-02T06:31:06;32.58;;;14.77;;
6527;SDS011;64597;42.664;23.256;2024-03-02T06:33:32;31.27;;;13.35;;
6527;SDS011;64597;42.664;23.256;2024-03-02T06:35:57;25.75;;;12.90;;
6527;SDS011;64597;42.664;23.256;2024-03-02T06:38:23;33.75;;;14.90;;
6527;SDS011;64597;42.664;23.256;2024-03-02T06:40:48;33.67;;;14.85;;
6527;SDS011;64597;42.664;23.256;2024-03-02T06:43:14;30.20;;;14.07;;
6527;SDS011;64597;42.664;23.256;2024-03-02T06:45:39;30.75;;;13.55;;
6527;SDS011;64597;42.664;23.256;2024-03-02T06:48:05;33.75;;;13.73;;
6527;SDS011;64597;42.664;23.256;2024-03-02T06:50:30;28.98;;;15.05;;
6527;SDS011;64597;42.664;23.256;2024-03-02T06:52:56;29.23;;;13.88;;
6527;SDS011;64597;42.664;23.256;2024-03-02T06:55:22;31.90;;;14.48;;
6527;SDS011;64597;42.664;23.256;2024-03-02T06:57:49;28.23;;;14.48;;
6527;SDS011;64597;42.664;23.256;2024-03-02T07:00:15;31.52;;;14.45;;
6527;SDS011;64597;42.664;23.256;2024-03-02T07:02:45;29.30;;;14.48;;
6527;SDS011;64597;42.664;23.256;2024-03-02T07:07:37;32.03;;;14.70;;
6527;SDS011;64597;42.664;23.256;2024-03-02T07:10:03;34.42;;;15.60;;
6527;SDS011;64597;42.664;23.256;2024-03-02T07:12:29;29.90;;;13.25;;
6527;SDS011;64597;42.664;23.256;2024-03-02T07:14:56;26.73;;;12.10;;
6527;SDS011;64597;42.664;23.256;2024-03-02T07:17:30;26.58;;;12.50;;
6527;SDS011;64597;42.664;23.256;2024-03-02T07:19:56;18.30;;;9.95;;
6527;SDS011;64597;42.664;23.256;2024-03-02T07:22:22;24.45;;;11.27;;
6527;SDS011;64597;42.664;23.256;2024-03-02T07:24:48;26.25;;;9.85;;
6527;SDS011;64597;42.664;23.256;2024-03-02T07:27:14;20.60;;;10.00;;
6527;SDS011;64597;42.664;23.256;2024-03-02T07:29:42;24.65;;;11.85;;
6527;SDS011;64597;42.664;23.256;2024-03-02T07:32:08;23.27;;;9.43;;
6527;SDS011;64597;42.664;23.256;2024-03-02T07:34:35;19.05;;;8.57;;
6527;SDS011;64597;42.664;23.256;2024-03-02T07:37:00;17.77;;;8.70;;
6527;SDS011;64597;42.664;23.256;2024-03-02T07:39:26;22.70;;;9.98;;
6527;SDS011;64597;42.664;23.256;2024-03-02T07:41:52;19.77;;;9.57;;
6527;SDS011;64597;42.664;23.256;2024-03-02T07:44:18;17.58;;;8.05;;
6527;SDS011;64597;42.664;23.256;2024-03-02T07:46:44;17.38;;;7.78;;
6527;SDS011;64597;42.664;23.256;2024-03-02T07:49:17;21.02;;;9.57;;
6527;SDS011;64597;42.664;23.256;2024-03-02T07:51:43;17.05;;;7.70;;
6527;SDS011;64597;42.664;23.256;2024-03-02T07:54:09;20.05;;;8.95;;
6527;SDS011;64597;42.664;23.256;2024-03-02T07:56:34;18.98;;;8.30;;
6527;SDS011;64597;42.664;23.256;2024-03-02T07:59:01;19.40;;;9.55;;
6527;SDS011;64597;42.664;23.256;2024-03-02T08:01:31;21.80;;;9.32;;
6527;SDS011;64597;42.664;23.256;2024-03-02T08:03:57;21.77;;;8.70;;
6527;SDS011;64597;42.664;23.256;2024-03-02T08:06:27;16.77;;;8.57;;
6527;SDS011;64597;42.664;23.256;2024-03-02T08:08:53;20.55;;;9.32;;
6527;SDS011;64597;42.664;23.256;2024-03-02T08:11:20;24.55;;;10.38;;
6527;SDS011;64597;42.664;23.256;2024-03-02T08:13:46;21.63;;;9.82;;
6527;SDS011;64597;42.664;23.256;2024-03-02T08:16:12;20.05;;;9.07;;
6527;SDS011;64597;42.664;23.256;2024-03-02T08:18:42;20.35;;;8.68;;
6527;SDS011;64597;42.664;23.256;2024-03-02T08:21:08;20.00;;;9.85;;
6527;SDS011;64597;42.664;23.256;2024-03-02T08:23:37;23.90;;;9.32;;
6527;SDS011;64597;42.664;23.256;2024-03-02T08:26:10;22.27;;;10.02;;
6527;SDS011;64597;42.664;23.256;2024-03-02T08:28:38;21.17;;;9.85;;
6527;SDS011;64597;42.664;23.256;2024-03-02T08:31:14;22.35;;;9.38;;
6527;SDS011;64597;42.664;23.256;2024-03-02T08:33:39;20.63;;;10.02;;
6527;SDS011;64597;42.664;23.256;2024-03-02T08:36:05;23.30;;;10.80;;
6527;SDS011;64597;42.664;23.256;2024-03-02T08:38:31;10.23;;;4.38;;
6527;SDS011;64597;42.664;23.256;2024-03-02T08:40:57;21.95;;;8.85;;
6527;SDS011;64597;42.664;23.256;2024-03-02T08:43:22;22.65;;;9.80;;
6527;SDS011;64597;42.664;23.256;2024-03-02T08:45:48;22.42;;;10.15;;
6527;SDS011;64597;42.664;23.256;2024-03-02T08:48:14;20.83;;;8.70;;
6527;SDS011;64597;42.664;23.256;2024-03-02T08:50:40;22.27;;;7.28;;
6527;SDS011;64597;42.664;23.256;2024-03-02T08:53:05;27.88;;;13.60;;
6527;SDS011;64597;42.664;23.256;2024-03-02T08:55:31;25.45;;;12.25;;
6527;SDS011;64597;42.664;23.256;2024-03-02T08:57:56;32.97;;;21.75;;
6527;SDS011;64597;42.664;23.256;2024-03-02T09:00:22;20.13;;;12.00;;
6527;SDS011;64597;42.664;23.256;2024-03-02T09:02:48;20.27;;;10.75;;
6527;SDS011;64597;42.664;23.256;2024-03-02T09:05:14;19.05;;;10.25;;
6527;SDS011;64597;42.664;23.256;2024-03-02T09:07:40;20.05;;;10.55;;
6527;SDS011;64597;42.664;23.256;2024-03-02T09:10:05;19.00;;;9.60;;
6527;SDS011;64597;42.664;23.256;2024-03-02T09:12:32;20.83;;;10.35;;
6527;SDS011;64597;42.664;23.256;2024-03-02T09:14:58;22.88;;;11.18;;
6527;SDS011;64597;42.664;23.256;2024-03-02T09:17:24;18.25;;;9.63;;
6527;SDS011;64597;42.664;23.256;2024-03-02T09:19:50;17.85;;;9.68;;
6527;SDS011;64597;42.664;23.256;2024-03-02T09:22:19;18.33;;;9.95;;
6527;SDS011;64597;42.664;23.256;2024-03-02T09:24:44;17.50;;;8.63;;
6527;SDS011;64597;42.664;23.256;2024-03-02T09:27:10;20.58;;;9.30;;
6527;SDS011;64597;42.664;23.256;2024-03-02T09:29:36;20.08;;;9.80;;
6527;SDS011;64597;42.664;23.256;2024-03-02T09:32:02;17.58;;;9.73;;
6527;SDS011;64597;42.664;23.256;2024-03-02T09:34:27;19.35;;;9.18;;
6527;SDS011;64597;42.664;23.256;2024-03-02T09:36:53;18.77;;;10.43;;
6527;SDS011;64597;42.664;23.256;2024-03-02T09:39:18;18.55;;;9.45;;
6527;SDS011;64597;42.664;23.256;2024-03-02T09:41:44;20.83;;;9.82;;
6527;SDS011;64597;42.664;23.256;2024-03-02T09:44:10;16.95;;;9.20;;
6527;SDS011;64597;42.664;23.256;2024-03-02T09:46:35;16.80;;;9.30;;
6527;SDS011;64597;42.664;23.256;2024-03-02T09:49:01;15.48;;;7.95;;
6527;SDS011;64597;42.664;23.256;2024-03-02T09:51:27;18.88;;;9.05;;
6527;SDS011;64597;42.664;23.256;2024-03-02T09:53:54;15.13;;;8.77;;
6527;SDS011;64597;42.664;23.256;2024-03-02T09:56:20;18.45;;;8.85;;
6527;SDS011;64597;42.664;23.256;2024-03-02T09:58:46;20.02;;;9.88;;
6527;SDS011;64597;42.664;23.256;2024-03-02T10:01:12;18.15;;;9.23;;
6527;SDS011;64597;42.664;23.256;2024-03-02T10:03:38;18.48;;;9.40;;
6527;SDS011;64597;42.664;23.256;2024-03-02T10:08:45;18.75;;;9.45;;
6527;SDS011;64597;42.664;23.256;2024-03-02T10:11:13;20.08;;;10.15;;
6527;SDS011;64597;42.664;23.256;2024-03-02T10:14:04;25.73;;;9.98;;
6527;SDS011;64597;42.664;23.256;2024-03-02T10:16:34;22.33;;;10.60;;
6527;SDS011;64597;42.664;23.256;2024-03-02T10:19:21;18.35;;;9.57;;
6527;SDS011;64597;42.664;23.256;2024-03-02T10:21:52;20.63;;;10.70;;
6527;SDS011;64597;42.664;23.256;2024-03-02T10:24:19;18.70;;;9.65;;
6527;SDS011;64597;42.664;23.256;2024-03-02T10:26:46;19.45;;;9.88;;
6527;SDS011;64597;42.664;23.256;2024-03-02T10:29:12;17.83;;;9.68;;
6527;SDS011;64597;42.664;23.256;2024-03-02T10:31:38;22.10;;;11.80;;
6527;SDS011;64597;42.664;23.256;2024-03-02T10:34:05;21.40;;;10.45;;
6527;SDS011;64597;42.664;23.256;2024-03-02T10:36:35;19.80;;;10.80;;
6527;SDS011;64597;42.664;23.256;2024-03-02T10:39:01;21.33;;;11.50;;
6527;SDS011;64597;42.664;23.256;2024-03-02T10:41:34;23.67;;;11.18;;
6527;SDS011;64597;42.664;23.256;2024-03-02T10:44:03;20.25;;;9.52;;
6527;SDS011;64597;42.664;23.256;2024-03-02T10:46:33;21.17;;;10.32;;
6527;SDS011;64597;42.664;23.256;2024-03-02T10:49:01;21.40;;;9.60;;
6527;SDS011;64597;42.664;23.256;2024-03-02T10:51:30;21.05;;;10.05;;
6527;SDS011;64597;42.664;23.256;2024-03-02T10:54:00;20.63;;;10.55;;
6527;SDS011;64597;42.664;23.256;2024-03-02T10:56:47;20.08;;;10.52;;
6527;SDS011;64597;42.664;23.256;2024-03-02T11:01:48;25.30;;;11.82;;
6527;SDS011;64597;42.664;23.256;2024-03-02T11:04:18;24.00;;;12.32;;
6527;SDS011;64597;42.664;23.256;2024-03-02T11:06:50;16.67;;;6.90;;
6527;SDS011;64597;42.664;23.256;2024-03-02T11:09:19;25.00;;;11.30;;
6527;SDS011;64597;42.664;23.256;2024-03-02T11:11:52;16.80;;;9.60;;
6527;SDS011;64597;42.664;23.256;2024-03-02T11:14:26;22.73;;;11.32;;
6527;SDS011;64597;42.664;23.256;2024-03-02T11:16:57;22.55;;;11.20;;
6527;SDS011;64597;42.664;23.256;2024-03-02T11:19:23;22.80;;;11.73;;
6527;SDS011;64597;42.664;23.256;2024-03-02T11:21:50;25.40;;;12.45;;
6527;SDS011;64597;42.664;23.256;2024-03-02T11:26:52;28.85;;;16.35;;
6527;SDS011;64597;42.664;23.256;2024-03-02T11:32:22;26.55;;;15.20;;
6527;SDS011;64597;42.664;23.256;2024-03-02T11:34:49;29.98;;;15.05;;
6527;SDS011;64597;42.664;23.256;2024-03-02T11:37:19;28.63;;;13.35;;
6527;SDS011;64597;42.664;23.256;2024-03-02T11:39:45;25.33;;;12.27;;
6527;SDS011;64597;42.664;23.256;2024-03-02T11:42:14;27.67;;;13.15;;
6527;SDS011;64597;42.664;23.256;2024-03-02T11:44:46;25.67;;;12.93;;
6527;SDS011;64597;42.664;23.256;2024-03-02T11:47:14;26.98;;;13.60;;
6527;SDS011;64597;42.664;23.256;2024-03-02T11:52:08;24.98;;;12.95;;
6527;SDS011;64597;42.664;23.256;2024-03-02T11:54:39;24.38;;;12.02;;
6527;SDS011;64597;42.664;23.256;2024-03-02T11:57:11;30.75;;;13.10;;
6527;SDS011;64597;42.664;23.256;2024-03-02T11:59:37;39.28;;;16.17;;
6527;SDS011;64597;42.664;23.256;2024-03-02T12:02:03;39.97;;;15.57;;
6527;SDS011;64597;42.664;23.256;2024-03-02T12:04:28;33.45;;;13.90;;
6527;SDS011;64597;42.664;23.256;2024-03-02T12:06:58;34.72;;;14.20;;
6527;SDS011;64597;42.664;23.256;2024-03-02T12:09:25;26.45;;;12.30;;
6527;SDS011;64597;42.664;23.256;2024-03-02T12:14:29;22.70;;;11.00;;
6527;SDS011;64597;42.664;23.256;2024-03-02T12:16:55;25.55;;;12.27;;
6527;SDS011;64597;42.664;23.256;2024-03-02T12:19:21;27.05;;;12.35;;
6527;SDS011;64597;42.664;23.256;2024-03-02T12:21:46;24.05;;;10.95;;
6527;SDS011;64597;42.664;23.256;2024-03-02T12:24:12;27.58;;;12.48;;
6527;SDS011;64597;42.664;23.256;2024-03-02T12:26:37;23.23;;;11.77;;
6527;SDS011;64597;42.664;23.256;2024-03-02T12:29:03;22.58;;;11.45;;
6527;SDS011;64597;42.664;23.256;2024-03-02T12:31:28;23.08;;;12.52;;
6527;SDS011;64597;42.664;23.256;2024-03-02T12:33:54;24.20;;;12.82;;
6527;SDS011;64597;42.664;23.256;2024-03-02T12:36:20;19.80;;;11.18;;
6527;SDS011;64597;42.664;23.256;2024-03-02T12:38:45;21.95;;;11.02;;
6527;SDS011;64597;42.664;23.256;2024-03-02T12:41:14;23.67;;;12.18;;
6527;SDS011;64597;42.664;23.256;2024-03-02T12:43:40;23.95;;;11.93;;
6527;SDS011;64597;42.664;23.256;2024-03-02T12:46:06;24.50;;;12.10;;
6527;SDS011;64597;42.664;23.256;2024-03-02T12:48:31;26.80;;;11.80;;
6527;SDS011;64597;42.664;23.256;2024-03-02T12:50:57;21.50;;;10.68;;
6527;SDS011;64597;42.664;23.256;2024-03-02T12:53:22;25.90;;;11.98;;
6527;SDS011;64597;42.664;23.256;2024-03-02T12:55:49;23.35;;;11.63;;
6527;SDS011;64597;42.664;23.256;2024-03-02T12:58:21;24.00;;;11.60;;
6527;SDS011;64597;42.664;23.256;2024-03-02T13:00:47;20.52;;;12.30;;
6527;SDS011;64597;42.664;23.256;2024-03-02T13:03:12;22.88;;;11.95;;
6527;SDS011;64597;42.664;23.256;2024-03-02T13:05:39;25.40;;;12.32;;
6527;SDS011;64597;42.664;23.256;2024-03-02T13:08:04;22.58;;;11.30;;
6527;SDS011;64597;42.664;23.256;2024-03-02T13:10:32;26.98;;;13.18;;
6527;SDS011;64597;42.664;23.256;2024-03-02T13:12:58;23.95;;;11.43;;
6527;SDS011;64597;42.664;23.256;2024-03-02T13:15:23;28.05;;;13.07;;
6527;SDS011;64597;42.664;23.256;2024-03-02T13:17:51;23.83;;;12.07;;
6527;SDS011;64597;42.664;23.256;2024-03-02T13:20:16;26.88;;;12.65;;
6527;SDS011;64597;42.664;23.256;2024-03-02T13:22:43;26.65;;;12.55;;
6527;SDS011;64597;42.664;23.256;2024-03-02T13:25:08;26.90;;;13.30;;
6527;SDS011;64597;42.664;23.256;2024-03-02T13:27:35;25.27;;;13.05;;
6527;SDS011;64597;42.664;23.256;2024-03-02T13:30:01;26.38;;;12.18;;
6527;SDS011;64597;42.664;23.256;2024-03-02T13:32:27;24.27;;;12.38;;
6527;SDS011;64597;42.664;23.256;2024-03-02T13:34:53;24.90;;;13.05;;
6527;SDS011;64597;42.664;23.256;2024-03-02T13:37:20;25.55;;;12.90;;
6527;SDS011;64597;42.664;23.256;2024-03-02T13:39:45;28.00;;;12.52;;
6527;SDS011;64597;42.664;23.256;2024-03-02T13:42:11;23.63;;;12.98;;
6527;SDS011;64597;42.664;23.256;2024-03-02T13:44:39;31.00;;;13.95;;
6527;SDS011;64597;42.664;23.256;2024-03-02T13:47:05;24.23;;;11.77;;
6527;SDS011;64597;42.664;23.256;2024-03-02T13:49:31;24.67;;;14.18;;
6527;SDS011;64597;42.664;23.256;2024-03-02T13:52:04;28.27;;;13.48;;
6527;SDS011;64597;42.664;23.256;2024-03-02T13:54:42;26.58;;;13.70;;
6527;SDS011;64597;42.664;23.256;2024-03-02T13:57:10;25.83;;;12.93;;
6527;SDS011;64597;42.664;23.256;2024-03-02T13:59:36;29.17;;;14.10;;
6527;SDS011;64597;42.664;23.256;2024-03-02T14:02:02;25.17;;;12.85;;
6527;SDS011;64597;42.664;23.256;2024-03-02T14:04:30;26.25;;;13.60;;
6527;SDS011;64597;42.664;23.256;2024-03-02T14:06:58;27.95;;;12.95;;
6527;SDS011;64597;42.664;23.256;2024-03-02T14:09:23;28.95;;;13.77;;
6527;SDS011;64597;42.664;23.256;2024-03-02T14:11:52;25.92;;;13.65;;
6527;SDS011;64597;42.664;23.256;2024-03-02T14:14:18;24.50;;;12.68;;
6527;SDS011;64597;42.664;23.256;2024-03-02T14:16:44;32.03;;;14.57;;
6527;SDS011;64597;42.664;23.256;2024-03-02T14:19:10;26.85;;;13.88;;
6527;SDS011;64597;42.664;23.256;2024-03-02T14:21:36;28.08;;;13.75;;
6527;SDS011;64597;42.664;23.256;2024-03-02T14:24:02;26.52;;;13.25;;
6527;SDS011;64597;42.664;23.256;2024-03-02T14:26:27;25.85;;;12.25;;
6527;SDS011;64597;42.664;23.256;2024-03-02T14:28:53;25.88;;;13.48;;
6527;SDS011;64597;42.664;23.256;2024-03-02T14:31:19;24.90;;;13.57;;
6527;SDS011;64597;42.664;23.256;2024-03-02T14:33:45;27.15;;;13.32;;
6527;SDS011;64597;42.664;23.256;2024-03-02T14:36:11;25.98;;;13.27;;
6527;SDS011;64597;42.664;23.256;2024-03-02T14:38:37;27.98;;;14.10;;
6527;SDS011;64597;42.664;23.256;2024-03-02T14:41:03;23.65;;;13.90;;
6527;SDS011;64597;42.664;23.256;2024-03-02T14:43:30;30.83;;;13.48;;
6527;SDS011;64597;42.664;23.256;2024-03-02T14:45:56;25.48;;;12.18;;